sensor_id;sensor_type;location;lat;lon;timestamp;temperature;humidity
45343;DHT22;31077;50.872;4.352;2023-04-06T00:02:00;26.30;33.60
45343;DHT22;31077;50.872;4.352;2023-04-06T00:04:26;26.40;33.70
45343;DHT22;31077;50.872;4.352;2023-04-06T00:06:52;26.30;33.70
45343;DHT22;31077;50.872;4.352;2023-04-06T00:09:18;26.40;33.80
45343;DHT22;31077;50.872;4.352;2023-04-06T00:11:43;26.30;33.70
45343;DHT22;31077;50.872;4.352;2023-04-06T00:14:09;26.30;33.60
45343;DHT22;31077;50.872;4.352;2023-04-06T00:16:35;26.30;33.60
45343;DHT22;31077;50.872;4.352;2023-04-06T00:19:01;26.30;33.50
45343;DHT22;31077;50.872;4.352;2023-04-06T00:21:27;26.30;33.50
45343;DHT22;31077;50.872;4.352;2023-04-06T00:23:52;26.30;33.40
45343;DHT22;31077;50.872;4.352;2023-04-06T00:26:18;26.30;33.40
45343;DHT22;31077;50.872;4.352;2023-04-06T00:28:44;26.30;33.30
45343;DHT22;31077;50.872;4.352;2023-04-06T00:31:09;26.40;33.30
45343;DHT22;31077;50.872;4.352;2023-04-06T00:33:36;26.30;33.20
45343;DHT22;31077;50.872;4.352;2023-04-06T00:36:02;26.30;33.10
45343;DHT22;31077;50.872;4.352;2023-04-06T00:38:29;26.30;33.10
45343;DHT22;31077;50.872;4.352;2023-04-06T00:40:55;26.30;33.10
45343;DHT22;31077;50.872;4.352;2023-04-06T00:43:21;26.30;33.00
45343;DHT22;31077;50.872;4.352;2023-04-06T00:45:47;26.30;32.90
45343;DHT22;31077;50.872;4.352;2023-04-06T00:48:12;26.30;32.90
45343;DHT22;31077;50.872;4.352;2023-04-06T00:50:38;26.40;32.90
45343;DHT22;31077;50.872;4.352;2023-04-06T00:53:04;26.50;32.90
45343;DHT22;31077;50.872;4.352;2023-04-06T00:55:30;26.30;32.70
45343;DHT22;31077;50.872;4.352;2023-04-06T00:57:58;26.30;32.60
45343;DHT22;31077;50.872;4.352;2023-04-06T01:00:25;26.30;32.60
45343;DHT22;31077;50.872;4.352;2023-04-06T01:02:51;26.30;32.60
45343;DHT22;31077;50.872;4.352;2023-04-06T01:05:16;26.30;32.50
45343;DHT22;31077;50.872;4.352;2023-04-06T01:07:42;26.30;32.40
45343;DHT22;31077;50.872;4.352;2023-04-06T01:10:08;26.30;32.40
45343;DHT22;31077;50.872;4.352;2023-04-06T01:12:34;26.30;32.30
45343;DHT22;31077;50.872;4.352;2023-04-06T01:15:01;26.30;32.30
45343;DHT22;31077;50.872;4.352;2023-04-06T01:17:27;26.30;32.30
45343;DHT22;31077;50.872;4.352;2023-04-06T01:19:54;26.30;32.20
45343;DHT22;31077;50.872;4.352;2023-04-06T01:22:20;26.30;32.20
45343;DHT22;31077;50.872;4.352;2023-04-06T01:24:46;26.30;32.20
45343;DHT22;31077;50.872;4.352;2023-04-06T01:27:12;26.30;32.10
45343;DHT22;31077;50.872;4.352;2023-04-06T01:29:39;26.30;32.10
45343;DHT22;31077;50.872;4.352;2023-04-06T01:32:07;26.30;32.00
45343;DHT22;31077;50.872;4.352;2023-04-06T01:34:34;26.30;32.00
45343;DHT22;31077;50.872;4.352;2023-04-06T01:37:01;26.30;32.00
45343;DHT22;31077;50.872;4.352;2023-04-06T01:39:27;26.30;31.90
45343;DHT22;31077;50.872;4.352;2023-04-06T01:41:52;26.30;31.90
45343;DHT22;31077;50.872;4.352;2023-04-06T01:44:18;26.30;31.80
45343;DHT22;31077;50.872;4.352;2023-04-06T01:46:44;26.30;31.80
45343;DHT22;31077;50.872;4.352;2023-04-06T01:49:11;26.30;31.80
45343;DHT22;31077;50.872;4.352;2023-04-06T01:51:37;26.30;31.70
45343;DHT22;31077;50.872;4.352;2023-04-06T01:54:03;26.30;31.70
45343;DHT22;31077;50.872;4.352;2023-04-06T01:56:29;26.30;31.70
45343;DHT22;31077;50.872;4.352;2023-04-06T01:58:55;26.30;31.60
45343;DHT22;31077;50.872;4.352;2023-04-06T02:01:21;26.20;31.50
45343;DHT22;31077;50.872;4.352;2023-04-06T02:03:47;26.20;31.40
45343;DHT22;31077;50.872;4.352;2023-04-06T02:06:13;26.30;31.50
45343;DHT22;31077;50.872;4.352;2023-04-06T02:08:38;26.30;31.50
45343;DHT22;31077;50.872;4.352;2023-04-06T02:11:04;26.30;31.50
45343;DHT22;31077;50.872;4.352;2023-04-06T02:13:30;26.20;31.30
45343;DHT22;31077;50.872;4.352;2023-04-06T02:15:56;26.30;31.40
45343;DHT22;31077;50.872;4.352;2023-04-06T02:18:22;26.20;31.30
45343;DHT22;31077;50.872;4.352;2023-04-06T02:20:48;26.30;31.40
45343;DHT22;31077;50.872;4.352;2023-04-06T02:23:14;26.20;31.30
45343;DHT22;31077;50.872;4.352;2023-04-06T02:25:41;26.20;31.30
45343;DHT22;31077;50.872;4.352;2023-04-06T02:28:07;26.20;31.30
45343;DHT22;31077;50.872;4.352;2023-04-06T02:30:34;26.20;31.30
45343;DHT22;31077;50.872;4.352;2023-04-06T02:33:02;26.20;31.30
45343;DHT22;31077;50.872;4.352;2023-04-06T02:35:29;26.20;31.30
45343;DHT22;31077;50.872;4.352;2023-04-06T02:37:55;26.20;31.30
45343;DHT22;31077;50.872;4.352;2023-04-06T02:40:21;26.20;31.30
45343;DHT22;31077;50.872;4.352;2023-04-06T02:42:46;26.20;31.20
45343;DHT22;31077;50.872;4.352;2023-04-06T02:45:12;26.20;31.20
45343;DHT22;31077;50.872;4.352;2023-04-06T02:47:38;26.00;31.20
45343;DHT22;31077;50.872;4.352;2023-04-06T02:50:04;26.20;31.20
45343;DHT22;31077;50.872;4.352;2023-04-06T02:52:31;26.20;31.10
45343;DHT22;31077;50.872;4.352;2023-04-06T02:54:59;26.20;31.10
45343;DHT22;31077;50.872;4.352;2023-04-06T02:57:25;26.20;31.20
45343;DHT22;31077;50.872;4.352;2023-04-06T02:59:51;26.20;31.10
45343;DHT22;31077;50.872;4.352;2023-04-06T03:02:18;26.20;31.10
45343;DHT22;31077;50.872;4.352;2023-04-06T03:04:45;26.20;31.10
45343;DHT22;31077;50.872;4.352;2023-04-06T03:07:10;26.20;31.10
45343;DHT22;31077;50.872;4.352;2023-04-06T03:09:39;26.20;31.00
45343;DHT22;31077;50.872;4.352;2023-04-06T03:12:05;26.20;31.00
45343;DHT22;31077;50.872;4.352;2023-04-06T03:14:37;26.20;31.00
45343;DHT22;31077;50.872;4.352;2023-04-06T03:17:04;26.20;30.90
45343;DHT22;31077;50.872;4.352;2023-04-06T03:19:31;26.30;31.00
45343;DHT22;31077;50.872;4.352;2023-04-06T03:21:57;26.20;30.90
45343;DHT22;31077;50.872;4.352;2023-04-06T03:24:23;26.20;30.90
45343;DHT22;31077;50.872;4.352;2023-04-06T03:26:49;26.20;30.90
45343;DHT22;31077;50.872;4.352;2023-04-06T03:29:15;26.20;30.80
45343;DHT22;31077;50.872;4.352;2023-04-06T03:31:42;26.20;30.80
45343;DHT22;31077;50.872;4.352;2023-04-06T03:34:09;26.20;30.80
45343;DHT22;31077;50.872;4.352;2023-04-06T03:36:35;26.20;30.80
45343;DHT22;31077;50.872;4.352;2023-04-06T03:39:02;26.20;30.70
45343;DHT22;31077;50.872;4.352;2023-04-06T03:41:29;26.20;30.70
45343;DHT22;31077;50.872;4.352;2023-04-06T03:43:55;26.20;30.70
45343;DHT22;31077;50.872;4.352;2023-04-06T03:46:21;26.20;30.70
45343;DHT22;31077;50.872;4.352;2023-04-06T03:48:48;26.20;30.60
45343;DHT22;31077;50.872;4.352;2023-04-06T03:51:14;26.20;30.60
45343;DHT22;31077;50.872;4.352;2023-04-06T03:53:40;26.20;30.50
45343;DHT22;31077;50.872;4.352;2023-04-06T03:56:06;26.20;30.50
45343;DHT22;31077;50.872;4.352;2023-04-06T03:58:31;26.20;30.50
45343;DHT22;31077;50.872;4.352;2023-04-06T04:00:57;26.20;30.40
45343;DHT22;31077;50.872;4.352;2023-04-06T04:03:23;26.20;30.40
45343;DHT22;31077;50.872;4.352;2023-04-06T04:05:49;26.20;30.40
45343;DHT22;31077;50.872;4.352;2023-04-06T04:08:17;26.20;30.40
45343;DHT22;31077;50.872;4.352;2023-04-06T04:10:42;26.20;30.40
45343;DHT22;31077;50.872;4.352;2023-04-06T04:13:08;26.20;30.30
45343;DHT22;31077;50.872;4.352;2023-04-06T04:15:35;26.20;30.30
45343;DHT22;31077;50.872;4.352;2023-04-06T04:18:01;26.20;30.30
45343;DHT22;31077;50.872;4.352;2023-04-06T04:20:26;26.20;30.30
45343;DHT22;31077;50.872;4.352;2023-04-06T04:22:53;26.20;30.80
45343;DHT22;31077;50.872;4.352;2023-04-06T04:25:19;26.20;30.20
45343;DHT22;31077;50.872;4.352;2023-04-06T04:27:45;26.20;30.20
45343;DHT22;31077;50.872;4.352;2023-04-06T04:30:12;26.20;30.20
45343;DHT22;31077;50.872;4.352;2023-04-06T04:32:37;26.20;30.20
45343;DHT22;31077;50.872;4.352;2023-04-06T04:35:03;26.20;30.20
45343;DHT22;31077;50.872;4.352;2023-04-06T04:37:29;26.20;30.20
45343;DHT22;31077;50.872;4.352;2023-04-06T04:39:55;26.20;30.20
45343;DHT22;31077;50.872;4.352;2023-04-06T04:42:21;26.20;30.10
45343;DHT22;31077;50.872;4.352;2023-04-06T04:44:47;26.20;30.20
45343;DHT22;31077;50.872;4.352;2023-04-06T04:47:13;26.20;30.20
45343;DHT22;31077;50.872;4.352;2023-04-06T04:49:38;26.20;30.10
45343;DHT22;31077;50.872;4.352;2023-04-06T04:52:04;26.20;30.10
45343;DHT22;31077;50.872;4.352;2023-04-06T04:54:30;26.20;30.20
45343;DHT22;31077;50.872;4.352;2023-04-06T04:56:56;26.20;30.10
45343;DHT22;31077;50.872;4.352;2023-04-06T04:59:21;26.20;30.10
45343;DHT22;31077;50.872;4.352;2023-04-06T05:01:47;26.20;30.10
45343;DHT22;31077;50.872;4.352;2023-04-06T05:04:15;26.20;30.10
45343;DHT22;31077;50.872;4.352;2023-04-06T05:06:41;26.20;30.10
45343;DHT22;31077;50.872;4.352;2023-04-06T05:09:07;26.20;30.10
45343;DHT22;31077;50.872;4.352;2023-04-06T05:11:33;26.20;30.00
45343;DHT22;31077;50.872;4.352;2023-04-06T05:13:59;26.20;30.10
45343;DHT22;31077;50.872;4.352;2023-04-06T05:16:25;26.20;30.10
45343;DHT22;31077;50.872;4.352;2023-04-06T05:18:51;26.20;30.10
45343;DHT22;31077;50.872;4.352;2023-04-06T05:21:18;26.20;30.10
45343;DHT22;31077;50.872;4.352;2023-04-06T05:23:44;26.20;30.00
45343;DHT22;31077;50.872;4.352;2023-04-06T05:26:10;26.20;30.00
45343;DHT22;31077;50.872;4.352;2023-04-06T05:28:36;24.60;29.30
45343;DHT22;31077;50.872;4.352;2023-04-06T05:31:02;26.20;30.00
45343;DHT22;31077;50.872;4.352;2023-04-06T05:33:27;26.20;30.00
45343;DHT22;31077;50.872;4.352;2023-04-06T05:35:53;26.20;30.10
45343;DHT22;31077;50.872;4.352;2023-04-06T05:38:19;26.20;30.00
45343;DHT22;31077;50.872;4.352;2023-04-06T05:40:45;26.20;30.00
45343;DHT22;31077;50.872;4.352;2023-04-06T05:43:11;26.10;30.00
45343;DHT22;31077;50.872;4.352;2023-04-06T05:45:37;26.20;30.00
45343;DHT22;31077;50.872;4.352;2023-04-06T05:48:02;26.20;30.00
45343;DHT22;31077;50.872;4.352;2023-04-06T05:50:28;26.20;30.00
45343;DHT22;31077;50.872;4.352;2023-04-06T05:52:55;26.20;30.00
45343;DHT22;31077;50.872;4.352;2023-04-06T05:55:21;26.20;30.00
45343;DHT22;31077;50.872;4.352;2023-04-06T05:57:47;26.20;30.00
45343;DHT22;31077;50.872;4.352;2023-04-06T06:00:13;26.20;30.00
45343;DHT22;31077;50.872;4.352;2023-04-06T06:02:39;26.20;30.00
45343;DHT22;31077;50.872;4.352;2023-04-06T06:05:08;26.20;30.00
45343;DHT22;31077;50.872;4.352;2023-04-06T06:07:34;26.20;30.10
45343;DHT22;31077;50.872;4.352;2023-04-06T06:09:59;26.20;30.00
45343;DHT22;31077;50.872;4.352;2023-04-06T06:12:25;26.20;30.10
45343;DHT22;31077;50.872;4.352;2023-04-06T06:14:51;26.20;30.10
45343;DHT22;31077;50.872;4.352;2023-04-06T06:17:16;26.20;30.10
45343;DHT22;31077;50.872;4.352;2023-04-06T06:19:42;26.20;30.10
45343;DHT22;31077;50.872;4.352;2023-04-06T06:22:08;26.20;30.10
45343;DHT22;31077;50.872;4.352;2023-04-06T06:24:33;26.20;30.20
45343;DHT22;31077;50.872;4.352;2023-04-06T06:26:59;26.20;30.10
45343;DHT22;31077;50.872;4.352;2023-04-06T06:29:25;26.20;30.10
45343;DHT22;31077;50.872;4.352;2023-04-06T06:31:51;26.20;30.20
45343;DHT22;31077;50.872;4.352;2023-04-06T06:34:17;26.20;30.20
45343;DHT22;31077;50.872;4.352;2023-04-06T06:36:42;26.20;30.20
45343;DHT22;31077;50.872;4.352;2023-04-06T06:39:08;26.20;30.20
45343;DHT22;31077;50.872;4.352;2023-04-06T06:41:35;26.20;30.20
45343;DHT22;31077;50.872;4.352;2023-04-06T06:44:01;26.20;30.20
45343;DHT22;31077;50.872;4.352;2023-04-06T06:46:29;26.20;30.20
45343;DHT22;31077;50.872;4.352;2023-04-06T06:48:55;26.20;30.30
45343;DHT22;31077;50.872;4.352;2023-04-06T06:51:21;26.20;30.30
45343;DHT22;31077;50.872;4.352;2023-04-06T06:53:47;26.20;30.30
45343;DHT22;31077;50.872;4.352;2023-04-06T06:56:13;26.20;30.30
45343;DHT22;31077;50.872;4.352;2023-04-06T06:58:40;26.20;30.30
45343;DHT22;31077;50.872;4.352;2023-04-06T07:01:07;26.20;30.30
45343;DHT22;31077;50.872;4.352;2023-04-06T07:03:33;26.20;30.40
45343;DHT22;31077;50.872;4.352;2023-04-06T07:05:59;26.20;30.40
45343;DHT22;31077;50.872;4.352;2023-04-06T07:08:25;26.20;30.40
45343;DHT22;31077;50.872;4.352;2023-04-06T07:10:52;26.20;30.50
45343;DHT22;31077;50.872;4.352;2023-04-06T07:13:19;26.20;30.60
45343;DHT22;31077;50.872;4.352;2023-04-06T07:15:49;26.20;30.60
45343;DHT22;31077;50.872;4.352;2023-04-06T07:18:16;26.20;30.60
45343;DHT22;31077;50.872;4.352;2023-04-06T07:20:42;26.20;30.60
45343;DHT22;31077;50.872;4.352;2023-04-06T07:23:08;26.20;30.70
45343;DHT22;31077;50.872;4.352;2023-04-06T07:25:35;26.20;30.70
45343;DHT22;31077;50.872;4.352;2023-04-06T07:28:02;26.20;30.70
45343;DHT22;31077;50.872;4.352;2023-04-06T07:30:28;26.20;30.80
45343;DHT22;31077;50.872;4.352;2023-04-06T07:32:54;26.20;30.80
45343;DHT22;31077;50.872;4.352;2023-04-06T07:35:26;26.20;30.90
45343;DHT22;31077;50.872;4.352;2023-04-06T07:37:53;26.20;31.00
45343;DHT22;31077;50.872;4.352;2023-04-06T07:40:20;26.20;31.00
45343;DHT22;31077;50.872;4.352;2023-04-06T07:42:46;26.20;31.10
45343;DHT22;31077;50.872;4.352;2023-04-06T07:45:13;26.20;31.10
45343;DHT22;31077;50.872;4.352;2023-04-06T07:47:40;26.20;31.20
45343;DHT22;31077;50.872;4.352;2023-04-06T07:50:06;26.30;31.30
45343;DHT22;31077;50.872;4.352;2023-04-06T07:52:32;26.20;31.30
45343;DHT22;31077;50.872;4.352;2023-04-06T07:54:58;26.20;31.80
45343;DHT22;31077;50.872;4.352;2023-04-06T07:57:24;26.20;31.30
45343;DHT22;31077;50.872;4.352;2023-04-06T07:59:50;26.20;31.40
45343;DHT22;31077;50.872;4.352;2023-04-06T08:02:17;26.20;31.40
45343;DHT22;31077;50.872;4.352;2023-04-06T08:04:43;26.20;31.50
45343;DHT22;31077;50.872;4.352;2023-04-06T08:07:09;26.20;31.50
45343;DHT22;31077;50.872;4.352;2023-04-06T08:09:36;26.20;31.60
45343;DHT22;31077;50.872;4.352;2023-04-06T08:12:02;26.20;31.70
45343;DHT22;31077;50.872;4.352;2023-04-06T08:14:28;26.20;31.70
45343;DHT22;31077;50.872;4.352;2023-04-06T08:16:54;26.20;31.80
45343;DHT22;31077;50.872;4.352;2023-04-06T08:19:20;26.40;31.90
45343;DHT22;31077;50.872;4.352;2023-04-06T08:21:46;26.20;31.90
45343;DHT22;31077;50.872;4.352;2023-04-06T08:24:13;26.20;31.90
45343;DHT22;31077;50.872;4.352;2023-04-06T08:26:39;26.20;32.00
45343;DHT22;31077;50.872;4.352;2023-04-06T08:29:05;26.20;32.00
45343;DHT22;31077;50.872;4.352;2023-04-06T08:31:33;26.20;32.00
45343;DHT22;31077;50.872;4.352;2023-04-06T08:33:59;26.20;32.10
45343;DHT22;31077;50.872;4.352;2023-04-06T08:36:25;26.20;32.20
45343;DHT22;31077;50.872;4.352;2023-04-06T08:38:50;26.20;32.20
45343;DHT22;31077;50.872;4.352;2023-04-06T08:41:17;26.20;32.20
45343;DHT22;31077;50.872;4.352;2023-04-06T08:44:09;26.20;32.20
45343;DHT22;31077;50.872;4.352;2023-04-06T08:46:35;26.20;32.30
45343;DHT22;31077;50.872;4.352;2023-04-06T08:49:02;26.20;32.20
45343;DHT22;31077;50.872;4.352;2023-04-06T08:51:29;26.20;32.30
45343;DHT22;31077;50.872;4.352;2023-04-06T08:53:59;26.20;32.30
45343;DHT22;31077;50.872;4.352;2023-04-06T08:56:27;26.20;32.40
45343;DHT22;31077;50.872;4.352;2023-04-06T08:58:54;26.20;32.40
45343;DHT22;31077;50.872;4.352;2023-04-06T09:01:26;26.20;32.50
45343;DHT22;31077;50.872;4.352;2023-04-06T09:03:55;26.20;32.50
45343;DHT22;31077;50.872;4.352;2023-04-06T09:06:22;26.20;32.50
45343;DHT22;31077;50.872;4.352;2023-04-06T09:08:49;26.20;32.50
45343;DHT22;31077;50.872;4.352;2023-04-06T09:11:15;26.20;32.60
45343;DHT22;31077;50.872;4.352;2023-04-06T09:13:48;26.20;32.60
45343;DHT22;31077;50.872;4.352;2023-04-06T09:16:16;26.20;32.70
45343;DHT22;31077;50.872;4.352;2023-04-06T09:18:42;26.20;32.70
45343;DHT22;31077;50.872;4.352;2023-04-06T09:21:08;26.20;32.70
45343;DHT22;31077;50.872;4.352;2023-04-06T09:23:36;26.20;32.80
45343;DHT22;31077;50.872;4.352;2023-04-06T09:26:09;26.20;32.80
45343;DHT22;31077;50.872;4.352;2023-04-06T09:29:01;26.20;32.80
45343;DHT22;31077;50.872;4.352;2023-04-06T09:31:31;26.20;32.80
45343;DHT22;31077;50.872;4.352;2023-04-06T09:34:01;26.20;32.90
45343;DHT22;31077;50.872;4.352;2023-04-06T09:36:36;26.20;32.90
45343;DHT22;31077;50.872;4.352;2023-04-06T09:39:06;26.20;33.00
45343;DHT22;31077;50.872;4.352;2023-04-06T09:41:34;26.20;33.00
45343;DHT22;31077;50.872;4.352;2023-04-06T09:44:13;26.20;33.00
45343;DHT22;31077;50.872;4.352;2023-04-06T09:46:42;26.20;33.10
45343;DHT22;31077;50.872;4.352;2023-04-06T09:49:10;26.20;33.10
45343;DHT22;31077;50.872;4.352;2023-04-06T09:51:47;26.20;33.80
45343;DHT22;31077;50.872;4.352;2023-04-06T09:54:20;26.20;33.30
45343;DHT22;31077;50.872;4.352;2023-04-06T09:57:15;26.20;33.30
45343;DHT22;31077;50.872;4.352;2023-04-06T10:00:06;26.20;33.30
45343;DHT22;31077;50.872;4.352;2023-04-06T10:05:38;26.20;33.30
45343;DHT22;31077;50.872;4.352;2023-04-06T10:08:10;26.20;33.30
45343;DHT22;31077;50.872;4.352;2023-04-06T10:10:42;26.20;33.40
45343;DHT22;31077;50.872;4.352;2023-04-06T10:13:11;26.20;33.60
45343;DHT22;31077;50.872;4.352;2023-04-06T10:15:38;26.20;33.60
45343;DHT22;31077;50.872;4.352;2023-04-06T10:18:04;26.20;33.90
45343;DHT22;31077;50.872;4.352;2023-04-06T10:21:23;26.20;34.40
45343;DHT22;31077;50.872;4.352;2023-04-06T10:24:01;26.20;34.70
45343;DHT22;31077;50.872;4.352;2023-04-06T10:26:27;26.20;34.70
45343;DHT22;31077;50.872;4.352;2023-04-06T10:28:52;26.20;34.40
45343;DHT22;31077;50.872;4.352;2023-04-06T10:31:26;26.20;34.40
45343;DHT22;31077;50.872;4.352;2023-04-06T10:34:02;26.20;34.90
45343;DHT22;31077;50.872;4.352;2023-04-06T10:36:34;26.20;35.10
